Historique des mesures à Cassis (13260), France
Quotidien Résumé Octobre 1, 2017 Unités:  Métrique    US   Métrique/US
« Précédent (Jour)
Suivant (Jour) »
Quotidien Hebdomadaire Mensuel Annuel Période au choix
  Maximum: Minimum: Moyenne:
Température: TemperatureC °C 15.3 °C 18.2 °C
Point de rosée: DewpointC °C 13.0 °C 14.6 °C
Humidité: Humidity % 68 % 76 %
Vitesse du vent: 0 km/h 0 km/h 3.2 km/h
Rafales: 0 km/h - -
Vent:- - ESE
Pression: PressurehPa hPa 1013.4 hPa -
Précipitations: 0.0 mm    
Historical Graphs
 
 
Mesures pour : Octobre 1, 2017
Heure Temperature Point de rosée Pression Vent Vitesse du vent Rafales Humidité Pluie (par heure) Conditions
TemperatureC °C DewpointC °C PressurehPa hPa Calm     Humidity % HourlyPrecipMM mm SoftwareType W/m2
00:11 18.3 °C 16.1 °C 1014.8 hPa North 2.3 km/h 6.4 km/h 87 % 1.5 mm open2300-1.11 W/m2
01:11 18.2 °C 15.8 °C 1014.4 hPa Calm     86 % 0.0 mm open2300-1.11 W/m2
02:11 17.9 °C 15.6 °C 1013.8 hPa Calm     86 % 0.0 mm open2300-1.11 W/m2
03:11 17.8 °C 15.4 °C 1013.4 hPa NNE 2.3 km/h 2.3 km/h 86 % 0.0 mm open2300-1.11 W/m2
04:11 16.9 °C 14.3 °C 1013.4 hPa NW 8 km/h 20.3 km/h 85 % 0.0 mm open2300-1.11 W/m2
05:11 15.9 °C 13.8 °C 1013.8 hPa North 6.4 km/h 8.9 km/h 87 % 0.0 mm open2300-1.11 W/m2
06:11 15.3 °C 13.0 °C 1013.4 hPa NNE 19.2 km/h 19.2 km/h 86 % 0.0 mm open2300-1.11 W/m2
07:11 15.4 °C 13.3 °C 1014.1 hPa NNW 6.9 km/h 6.9 km/h 87 % 0.0 mm open2300-1.11 W/m2
08:11 15.8 °C 13.7 °C 1014.1 hPa Calm     87 % 0.0 mm open2300-1.11 W/m2
09:11 16.4 °C 14.1 °C 1014.4 hPa North 5.6 km/h 9.8 km/h 86 % 0.0 mm open2300-1.11 W/m2
10:11 17.1 °C 14.6 °C 1014.8 hPa NE 2.3 km/h 11.6 km/h 85 % 0.0 mm open2300-1.11 W/m2
11:11 18.4 °C 15.4 °C 1015.1 hPa NNE 3.4 km/h 9.3 km/h 83 % 0.0 mm open2300-1.11 W/m2
12:11 21.3 °C 17.3 °C 1015.1 hPa South 11.6 km/h 11.6 km/h 78 % 0.0 mm open2300-1.11 W/m2
13:11 21.8 °C 17.2 °C 1014.8 hPa SSE 2.3 km/h 11.6 km/h 75 % 0.0 mm open2300-1.11 W/m2
14:11 22.3 °C 17.2 °C 1015.1 hPa SE 2.3 km/h 6.9 km/h 73 % 0.0 mm open2300-1.11 W/m2
15:11 22.5 °C 16.8 °C 1015.1 hPa SSE 5.6 km/h 8 km/h 70 % 0.0 mm open2300-1.11 W/m2
16:11 22.3 °C 16.6 °C 1015.1 hPa Calm   6.4 km/h 70 % 0.0 mm open2300-1.11 W/m2
17:11 22.3 °C 16.1 °C 1015.1 hPa SE 3.4 km/h 8 km/h 68 % 0.0 mm open2300-1.11 W/m2
18:11 21.4 °C 15.2 °C 1015.5 hPa Calm   10.3 km/h 68 % 0.0 mm open2300-1.11 W/m2
19:11 20.6 °C 14.9 °C 1015.8 hPa Calm     70 % 0.0 mm open2300-1.11 W/m2
20:11 19.8 °C 14.8 °C 1016.1 hPa Calm     73 % 0.0 mm open2300-1.11 W/m2
21:11 19.2 °C 14.0 °C 1016.8 hPa Calm   9.8 km/h 72 % 0.0 mm open2300-1.11 W/m2
22:11 19.1 °C 14.1 °C 1017.2 hPa Calm     73 % 0.0 mm open2300-1.11 W/m2
23:11 19.1 °C 14.6 °C 1017.5 hPa Calm   2.3 km/h 75 % 0.0 mm open2300-1.11 W/m2
Observations météo à CASSIS
WU-History script by Weather Underground - 1 mb